Contact Us:
Email: info@sawbill.com
Phone: (218)663-7150
Fax: (218)663-7980
Mail: 4620 Sawbill Trail
Box 2129
Tofte, MN 55615


Powered by
Movable Type 3.15
 
Sawbill Weather History Archives: February 2007
Current Sawbill Weather History | « January 2007 | March 2007 »


Date

High
Temperature

Low
Temperature

Barometric
Pressure

Relative
Humidity 7AM

9 AM
Temperature

Moisture

Snow

2/28/07 31 19 30.10 64% 25 0
2/27/07 41 18 30.01 69% 19 .05" 1.5"
2/26/07 36 20 29.19 65% 20 0
2/25/07 29 20 30.04 66% 24 0
2/23/07 39 12 30.10 64% 20 .01" 1"
2/22/07 19 2 30.12 67% 12 0
2/21/07 39 12 30.25 68% 12 .75" 8"
2/20/07 32 14 29.63 79% 26 0
2/19/07 28 13 29.67 68% 14 0
2/18/07 26 -7 29.80 68% 19 0
2/17/07 26 -8 30.17 51% -7 0
2/16/07 24 11 29.85 57% 13 Trace Trace
2/15/07 21 -7 29.57 54% 12 0
2/14/07 13 -13 30.10 54% -7 0
2/13/07 13 -14 30.12 46% -13 0
2/12/07 19 -17 28.68 48% -17 0
2/11/07 19 -16 30.08 47% -16 0
2/10/07 16 -10 30.02 59% -1 0
2/9/07 12 -10 30.12 52% -10 0
2/8/07 13 -9 30.10 53% -7 0
2/7/07 14 -11 29.96 48% -7 0
2/6/07 10 -17 28.30 46% -12 0
2/5/07 3 -17 29.94 48% -15 0
2/4/07 -10 -24 28.57 45% -21 0
2/3/07 -10 -31 30.23 41% -27 0
2/2/07 10 -18 29.91 46% -18 0
2/1/07 10 -13 29.71 50% -10 Trace Trace
 


Home I Trip Planning I Rentals and Outfitting I Reservations I Campgrounds I Sawbill Store I Sawbill News I Contact

© 1997 - 2017, Sawbill Canoe Outfitters, Inc. I Privacy Policy